Home   Weather   USA   Waycross   Past weeks
Flag for USA

Past Weather in Waycross, Georgia, USA — Yesterday and Last 2 Weeks

Currently: 74 °F. Broken clouds. (Weather station: Waycross / Ware County - Ga, USA). See more current weather

Past Weather in Waycross — Graph

°F

Waycross Temperature Yesterday

Maximum temperature yesterday: 91 °F (at 3:15 pm)
Minimum temperature yesterday: 72 °F (at 3:35 am)
Average temperature yesterday: 78 °F

High & Low Weather Summary for the Past Weeks

 TemperatureHumidityPressure
High97 °F (Jun 15, 4:15 pm)97% (Jun 10, 7:55 am)30.20 "Hg (Jun 10, 7:55 am)
Low66 °F (Jun 17, 6:35 am)29% (Jun 16, 5:35 pm)29.75 "Hg (Jun 12, 3:35 pm)
Average80 °F78%30.00 "Hg
* Reported Jun 4 7:15 am — Jun 19 7:55 am, Waycross. Weather by CustomWeather, © 2021

Note: Actual official high and low records may vary slightly from our data, if they occured in-between our weather recording intervals... More about our weather records

Waycross Weather History for the Previous 24 Hours

Scroll right to see more
 ConditionsComfort  
Time TempWeatherWind HumidityBarometerVisibility
7:55 am
Sat, Jun 19
74 °FMostly cloudy.No wind96%30.08 "Hg10 mi
7:35 am73 °FPartly sunny.No wind95%30.08 "Hg10 mi
7:15 am73 °FScattered clouds.No wind96%30.07 "Hg10 mi
6:55 am72 °FSunny.No wind96%30.07 "Hg10 mi
6:35 am72 °FSunny.No wind96%30.06 "Hg10 mi
6:15 am72 °FClear.No wind96%30.06 "Hg10 mi
5:55 am72 °FClear.No wind96%30.06 "Hg10 mi
5:15 am72 °FClear.No wind96%30.06 "Hg10 mi
4:55 am72 °FClear.3 mph96%30.06 "Hg10 mi
4:35 am72 °FClear.No wind96%30.06 "Hg10 mi
4:15 am72 °FClear.No wind96%30.05 "Hg10 mi
3:55 am72 °FClear.No wind96%30.06 "Hg10 mi
3:35 am72 °FClear.No wind96%30.06 "Hg10 mi
3:15 am73 °FClear.No wind96%30.06 "Hg10 mi
2:55 am73 °FClear.No wind95%30.06 "Hg10 mi
2:35 am73 °FClear.No wind96%30.06 "Hg10 mi
2:15 am74 °FClear.No wind96%30.06 "Hg10 mi
1:55 am74 °FClear.3 mph96%30.07 "Hg10 mi
1:35 am74 °FClear.6 mph95%30.06 "Hg10 mi
12:55 am74 °FPassing clouds.No wind96%30.07 "Hg10 mi
12:35 am74 °FPassing clouds.No wind96%30.08 "Hg10 mi
12:15 am74 °FOvercast.No wind96%30.09 "Hg10 mi
11:55 pm
Fri, Jun 18
74 °FOvercast.No wind95%30.09 "Hg10 mi
11:35 pm74 °FOvercast.3 mph95%30.07 "Hg10 mi
11:15 pm74 °FOvercast.6 mph96%N/A10 mi
10:55 pm75 °FMostly cloudy.6 mph95%30.04 "Hg10 mi
10:35 pm75 °FMostly cloudy.3 mph96%30.05 "Hg10 mi
10:15 pm75 °FMostly cloudy.No wind95%30.05 "Hg10 mi
9:35 pm75 °FOvercast.3 mph95%30.05 "Hg10 mi
9:15 pm75 °FOvercast.5 mph96%30.07 "Hg10 mi
8:55 pm76 °FMostly cloudy.3 mph96%30.09 "Hg10 mi
8:15 pm76 °FMore clouds than sun.7 mph96%30.09 "Hg10 mi
7:55 pm76 °FRain. Overcast.7 mph96%30.10 "Hg10 mi
7:35 pm76 °FMostly cloudy.5 mph96%30.10 "Hg10 mi
7:15 pm76 °FLight rain. More clouds than sun.No wind96%30.07 "Hg10 mi
6:55 pm76 °FRain. Cloudy.No wind96%30.02 "Hg2 mi
6:35 pm75 °FHeavy rain. More clouds than sun.8 mph96%30.07 "Hg1 mi
6:15 pm80 °FCloudy.3 mph86%30.07 "Hg10 mi
5:55 pm81 °FScattered clouds.7 mph76%30.05 "Hg10 mi
5:35 pm83 °FBroken clouds.12 mph74%30.04 "Hg10 mi
5:15 pm85 °FCloudy.6 mph60%30.04 "Hg10 mi
4:55 pm85 °FBroken clouds.6 mph56%30.04 "Hg10 mi
4:35 pm88 °FMostly cloudy.10 mph51%30.04 "Hg10 mi
3:55 pm91 °FPartly sunny.7 mph47%30.04 "Hg10 mi
3:35 pm90 °FPartly sunny.6 mph50%30.04 "Hg10 mi
3:15 pm91 °FScattered clouds.8 mph47%30.04 "Hg10 mi
2:55 pm91 °FScattered clouds.5 mph46%30.05 "Hg10 mi
1:55 pm89 °FScattered clouds.6 mph53%30.06 "Hg10 mi
1:35 pm88 °FScattered clouds.6 mph57%30.07 "Hg10 mi
1:15 pm88 °FPartly sunny.6 mph58%30.08 "Hg10 mi
12:55 pm87 °FScattered clouds.5 mph63%30.09 "Hg10 mi
12:35 pm88 °FScattered clouds.6 mph63%30.09 "Hg10 mi
12:15 pm86 °FSunny.6 mph67%30.10 "Hg10 mi
11:55 am85 °FSunny.3 mph69%30.10 "Hg10 mi
11:35 am84 °FSunny.3 mph69%30.10 "Hg10 mi
11:15 am82 °FSunny.No wind74%30.10 "Hg10 mi
10:55 am82 °FSunny.No wind78%30.10 "Hg10 mi
10:35 am82 °FSunny.No wind75%30.10 "Hg10 mi
10:15 am82 °FSunny.3 mph73%30.10 "Hg10 mi
9:55 am82 °FSunny.3 mph80%30.10 "Hg10 mi
9:35 am81 °FSunny.3 mph84%30.10 "Hg10 mi
9:15 am81 °FSunny.3 mph82%30.09 "Hg10 mi
Weather by CustomWeather, © 2021

See weather overview